Time;durP1;ratioP1;P1;durP2;ratioP2;P2;SDS_P1;SDS_P2;PMS_P1;PMS_P2;Temp;Humidity;BMP_temperature;BMP_pressure;BME280_temperature;BME280_humidity;BME280_pressure;Samples;Min_cycle;Max_cycle;Signal;HPM_P1;HPM_P2
2023/12/01 00:01:47;;;;;;;96.50;40.50;;;;;;;0.52;100.00;99665.03;5012941;28;20132;-77
2023/12/01 00:04:13;;;;;;;97.40;38.50;;;;;;;0.43;100.00;99665.75;5012383;28;20478;-76
2023/12/01 00:06:40;;;;;;;100.18;39.72;;;;;;;0.59;100.00;99666.22;5013023;28;20049;-78
2023/12/01 00:09:06;;;;;;;90.40;37.25;;;;;;;0.60;100.00;99673.00;5012739;28;20148;-77
2023/12/01 00:11:33;;;;;;;103.53;40.88;;;;;;;0.66;100.00;99673.34;5012317;28;20129;-78
2023/12/01 00:14:01;;;;;;;112.93;41.35;;;;;;;0.83;100.00;99684.97;5000808;28;20137;-77
2023/12/01 00:16:27;;;;;;;105.70;40.72;;;;;;;0.73;100.00;99684.00;5012713;28;20046;-77
2023/12/01 00:18:54;;;;;;;104.05;41.03;;;;;;;0.79;100.00;99688.69;5012568;28;20528;-79
2023/12/01 00:21:21;;;;;;;100.97;37.03;;;;;;;0.58;100.00;99695.47;5009815;28;20473;-79
2023/12/01 00:23:48;;;;;;;105.97;38.47;;;;;;;0.46;100.00;99689.50;5008904;28;20092;-78
2023/12/01 00:26:14;;;;;;;91.35;36.92;;;;;;;0.54;100.00;99688.91;5002316;28;20046;-77
2023/12/01 00:28:41;;;;;;;97.00;37.92;;;;;;;0.70;100.00;99693.72;5008013;28;20100;-77
2023/12/01 00:31:09;;;;;;;95.45;39.70;;;;;;;0.70;100.00;99693.72;5011698;28;20045;-78
2023/12/01 00:33:35;;;;;;;101.82;36.63;;;;;;;0.72;100.00;99700.41;5007277;28;20060;-78
2023/12/01 00:36:02;;;;;;;88.65;37.10;;;;;;;0.79;100.00;99701.56;5012377;28;20049;-77
2023/12/01 00:38:29;;;;;;;92.68;36.45;;;;;;;0.88;100.00;99700.06;5012517;28;20128;-78
2023/12/01 00:40:55;;;;;;;88.22;36.72;;;;;;;0.81;100.00;99691.97;5012419;28;20056;-79
2023/12/01 00:43:22;;;;;;;83.03;37.33;;;;;;;0.80;100.00;99704.97;5014814;28;20062;-78
2023/12/01 00:45:48;;;;;;;88.63;36.00;;;;;;;0.65;100.00;99692.31;5012292;28;20564;-76
2023/12/01 00:48:16;;;;;;;92.75;37.13;;;;;;;0.59;100.00;99692.78;5004344;28;20053;-77
2023/12/01 00:50:43;;;;;;;84.85;35.03;;;;;;;0.63;100.00;99698.50;5012159;28;20145;-77
2023/12/01 00:53:09;;;;;;;82.85;35.22;;;;;;;0.78;100.00;99697.38;5011219;28;20146;-78
2023/12/01 00:55:36;;;;;;;82.95;33.85;;;;;;;0.79;100.00;99693.03;5011945;28;20049;-78
2023/12/01 00:58:03;;;;;;;86.40;36.15;;;;;;;0.64;100.00;99698.41;5011873;28;20164;-78
2023/12/01 01:00:30;;;;;;;88.60;35.30;;;;;;;0.72;100.00;99697.00;5012238;28;20050;-78
2023/12/01 01:02:56;;;;;;;84.80;35.13;;;;;;;0.53;100.00;99697.56;5005669;28;20137;-78
2023/12/01 01:05:24;;;;;;;88.18;37.15;;;;;;;0.75;100.00;99715.63;5011838;28;20073;-78
2023/12/01 01:07:51;;;;;;;88.60;37.05;;;;;;;0.74;100.00;99711.41;5011798;28;20197;-78
2023/12/01 01:10:18;;;;;;;82.57;34.35;;;;;;;0.62;100.00;99702.03;5006546;28;20413;-78
2023/12/01 01:12:44;;;;;;;88.30;35.85;;;;;;;0.63;100.00;99712.22;5011491;28;20046;-78
2023/12/01 01:15:11;;;;;;;82.78;36.25;;;;;;;0.43;100.00;99700.03;5011402;28;20473;-77
2023/12/01 01:17:38;;;;;;;86.68;36.45;;;;;;;0.52;100.00;99709.59;5011914;28;20054;-78
2023/12/01 01:20:04;;;;;;;100.28;38.03;;;;;;;0.58;100.00;99708.34;5006549;28;20564;-78
2023/12/01 01:22:33;;;;;;;94.85;36.95;;;;;;;0.53;100.00;99706.09;5012600;28;20132;-79
2023/12/01 01:25:00;;;;;;;113.88;38.08;;;;;;;0.46;100.00;99711.84;5012464;28;20049;-78
2023/12/01 01:27:26;;;;;;;105.78;37.38;;;;;;;0.50;100.00;99710.66;5012563;28;20085;-78
2023/12/01 01:29:53;;;;;;;89.35;37.95;;;;;;;0.58;100.00;99716.06;5007504;28;20078;-78
2023/12/01 01:32:20;;;;;;;95.35;37.05;;;;;;;0.46;100.00;99717.00;5012640;28;20062;-79
2023/12/01 01:34:46;;;;;;;95.20;37.53;;;;;;;0.49;100.00;99711.59;5012755;28;20389;-79
2023/12/01 01:37:13;;;;;;;99.53;37.22;;;;;;;0.39;100.00;99715.81;5012267;28;20136;-78
2023/12/01 01:39:41;;;;;;;101.47;36.45;;;;;;;0.50;100.00;99719.19;5009590;28;20056;-78
2023/12/01 01:42:07;;;;;;;104.40;39.15;;;;;;;0.43;100.00;99724.94;5011261;28;20099;-78
2023/12/01 01:44:35;;;;;;;109.05;37.88;;;;;;;0.54;100.00;99717.22;5011209;28;20163;-77
2023/12/01 01:47:02;;;;;;;102.60;37.40;;;;;;;0.61;100.00;99718.41;5003385;28;20053;-78
2023/12/01 01:49:29;;;;;;;100.30;37.13;;;;;;;0.48;100.00;99717.66;5009904;28;20049;-77
2023/12/01 01:51:59;;;;;;;111.90;40.67;;;;;;;0.41;100.00;99719.09;5011167;28;20568;-78
2023/12/01 01:54:27;;;;;;;104.82;40.30;;;;;;;0.40;100.00;99717.44;5013030;28;20144;-79
2023/12/01 01:56:57;;;;;;;101.68;39.85;;;;;;;0.49;100.00;99730.44;5005063;28;20130;-79
2023/12/01 01:59:24;;;;;;;101.13;38.03;;;;;;;0.50;100.00;99724.34;5010430;28;20060;-76
2023/12/01 02:01:51;;;;;;;102.57;39.42;;;;;;;0.56;100.00;99728.22;5002659;28;20050;-78
2023/12/01 02:04:18;;;;;;;95.60;37.80;;;;;;;0.53;100.00;99723.31;5012791;28;20420;-78
2023/12/01 02:06:46;;;;;;;96.63;37.08;;;;;;;0.49;100.00;99720.13;5013009;28;20533;-78
2023/12/01 02:09:13;;;;;;;103.10;39.90;;;;;;;0.51;100.00;99714.88;5005322;28;20052;-79
2023/12/01 02:11:39;;;;;;;107.55;37.13;;;;;;;0.69;100.00;99725.56;5012810;28;20049;-79
2023/12/01 02:14:08;;;;;;;86.47;37.17;;;;;;;0.82;100.00;99716.78;5025326;28;20097;-79
2023/12/01 02:16:34;;;;;;;93.22;36.33;;;;;;;0.78;100.00;99723.13;5028860;28;20058;-78
2023/12/01 02:19:01;;;;;;;99.82;38.35;;;;;;;0.74;100.00;99724.28;5027919;28;20085;-79
2023/12/01 02:21:29;;;;;;;94.72;38.45;;;;;;;0.76;100.00;99719.84;5021496;28;20145;-77
2023/12/01 02:23:57;;;;;;;101.75;38.38;;;;;;;0.83;100.00;99720.19;5023821;28;20103;-79
2023/12/01 02:26:24;;;;;;;96.50;38.30;;;;;;;0.83;100.00;99721.00;5020585;28;20530;-79
2023/12/01 02:28:50;;;;;;;90.38;37.00;;;;;;;0.76;100.00;99719.84;5021951;28;20215;-79
2023/12/01 02:31:17;;;;;;;93.13;37.85;;;;;;;0.89;100.00;99728.28;5017279;28;20331;-77
2023/12/01 02:33:43;;;;;;;91.93;37.90;;;;;;;0.77;100.00;99718.09;5017745;28;20089;-77
2023/12/01 02:36:13;;;;;;;96.82;38.70;;;;;;;0.84;100.00;99722.66;5018054;28;20080;-78
2023/12/01 02:38:39;;;;;;;97.07;38.58;;;;;;;0.91;100.00;99717.88;5018629;28;20104;-77
2023/12/01 02:41:07;;;;;;;97.32;37.92;;;;;;;0.80;100.00;99718.66;5010693;28;20364;-78
2023/12/01 02:43:33;;;;;;;86.70;36.55;;;;;;;0.53;100.00;99705.28;5018220;28;20060;-77
2023/12/01 02:46:00;;;;;;;89.40;40.15;;;;;;;0.65;100.00;99709.53;5019764;28;20136;-78
2023/12/01 02:48:26;;;;;;;88.18;37.72;;;;;;;0.78;100.00;99712.81;5023739;28;20077;-79
2023/12/01 02:50:53;;;;;;;86.72;37.03;;;;;;;0.82;100.00;99714.22;5025261;28;20138;-78
2023/12/01 02:53:19;;;;;;;71.97;31.92;;;;;;;0.71;100.00;99716.78;5020163;28;20080;-79
2023/12/01 02:55:46;;;;;;;70.93;35.22;;;;;;;0.80;100.00;99710.94;5020322;28;20109;-78
2023/12/01 02:58:14;;;;;;;85.65;34.33;;;;;;;0.80;100.00;99716.09;5017849;28;20054;-78
2023/12/01 03:00:42;;;;;;;74.50;31.08;;;;;;;0.68;100.00;99703.31;5022656;28;20117;-79
2023/12/01 03:03:09;;;;;;;74.25;32.67;;;;;;;0.68;100.00;99700.75;5022247;28;20045;-78
2023/12/01 03:05:36;;;;;;;67.70;31.17;;;;;;;0.54;100.00;99699.19;5026934;28;20049;-78
2023/12/01 03:08:03;;;;;;;68.57;30.05;;;;;;;0.58;100.00;99705.75;5026747;28;20081;-78
2023/12/01 03:10:29;;;;;;;62.53;30.35;;;;;;;0.55;100.00;99711.97;5021707;28;20128;-78
2023/12/01 03:12:56;;;;;;;64.28;30.02;;;;;;;0.66;100.00;99693.13;5022256;28;20049;-78
2023/12/01 03:15:24;;;;;;;64.80;30.33;;;;;;;0.66;100.00;99691.38;5022859;28;20481;-78
2023/12/01 03:17:51;;;;;;;64.75;29.95;;;;;;;0.64;100.00;99693.25;5018646;28;20046;-78
2023/12/01 03:20:17;;;;;;;64.22;31.30;;;;;;;0.74;100.00;99684.84;5022841;28;20122;-78
2023/12/01 03:22:46;;;;;;;64.68;30.17;;;;;;;0.80;100.00;99697.25;5023214;28;20153;-78
2023/12/01 03:25:13;;;;;;;62.90;30.15;;;;;;;0.79;100.00;99701.56;5019168;28;20089;-78
2023/12/01 03:27:41;;;;;;;56.78;28.20;;;;;;;0.85;100.00;99703.69;5013349;28;20055;-74
2023/12/01 03:30:13;;;;;;;58.78;28.98;;;;;;;0.94;100.00;99702.19;5013708;28;20049;-76
2023/12/01 03:32:44;;;;;;;60.42;30.83;;;;;;;0.99;100.00;99700.03;5014310;28;20443;-79
2023/12/01 03:35:12;;;;;;;59.45;28.35;;;;;;;0.95;100.00;99698.63;5013567;28;20057;-76
2023/12/01 03:37:38;;;;;;;52.40;27.08;;;;;;;0.91;100.00;99692.94;5010393;28;20054;-77
2023/12/01 03:40:08;;;;;;;53.95;27.25;;;;;;;0.85;100.00;99697.72;5013056;28;20133;-77
2023/12/01 03:42:35;;;;;;;54.53;26.23;;;;;;;0.73;100.00;99701.22;5014906;28;20084;-77
2023/12/01 03:45:01;;;;;;;51.30;24.67;;;;;;;0.78;100.00;99691.41;5020653;28;20054;-78
2023/12/01 03:47:28;;;;;;;47.50;25.40;;;;;;;0.91;100.00;99698.06;5023347;28;20089;-77
2023/12/01 03:49:56;;;;;;;52.05;25.90;;;;;;;0.86;99.51;99695.03;5023169;28;20073;-77
2023/12/01 03:52:22;;;;;;;60.00;27.05;;;;;;;0.84;99.40;99696.91;5024734;28;20110;-77
2023/12/01 03:54:49;;;;;;;52.58;26.52;;;;;;;0.77;98.76;99700.88;5020444;28;20081;-77
2023/12/01 03:57:15;;;;;;;54.25;25.27;;;;;;;0.75;98.26;99696.78;5001457;28;20132;-77
2023/12/01 03:59:42;;;;;;;58.65;27.90;;;;;;;0.88;98.20;99693.16;5013264;28;20133;-77
2023/12/01 04:02:08;;;;;;;58.83;28.35;;;;;;;0.73;97.66;99691.75;5012754;28;20050;-76
2023/12/01 04:04:35;;;;;;;60.45;29.25;;;;;;;0.84;97.57;99696.91;5012794;28;20053;-76
2023/12/01 04:07:07;;;;;;;56.40;28.17;;;;;;;0.79;97.84;99699.00;5011934;28;20137;-76
2023/12/01 04:09:33;;;;;;;57.08;27.85;;;;;;;0.82;97.79;99697.94;5012834;28;20428;-78
2023/12/01 04:12:00;;;;;;;62.58;27.88;;;;;;;0.89;97.64;99707.69;5012744;28;20152;-77
2023/12/01 04:14:27;;;;;;;60.83;28.30;;;;;;;0.93;97.69;99714.22;5011976;28;20068;-75
2023/12/01 04:16:53;;;;;;;65.65;28.85;;;;;;;0.84;97.43;99712.34;5012697;28;20060;-77
2023/12/01 04:19:20;;;;;;;59.47;28.60;;;;;;;0.92;97.27;99715.16;5012821;28;20084;-76
2023/12/01 04:21:47;;;;;;;56.67;26.20;;;;;;;0.81;96.78;99711.75;5012118;28;20054;-77
2023/12/01 04:24:15;;;;;;;61.38;28.75;;;;;;;0.66;97.41;99714.56;5004466;28;20112;-77
2023/12/01 04:26:41;;;;;;;61.53;28.42;;;;;;;0.72;97.10;99717.59;5012535;28;20140;-76
2023/12/01 04:29:42;;;;;;;60.20;28.40;;;;;;;0.81;97.18;99722.06;5058869;22;20049;-83
2023/12/01 04:32:23;;;;;;;58.47;26.92;;;;;;;0.86;97.55;99714.81;5056975;28;20049;-82
2023/12/01 04:35:06;;;;;;;64.40;27.10;;;;;;;0.78;97.33;99712.81;5055091;28;20056;-81
2023/12/01 04:37:50;;;;;;;57.70;26.05;;;;;;;0.83;97.11;99710.72;5052564;28;20048;-81
2023/12/01 04:43:08;;;;;;;56.08;27.40;;;;;;;0.91;96.52;99703.22;5035349;28;20081;-80
2023/12/01 04:45:35;;;;;;;51.20;25.75;;;;;;;0.82;97.17;99723.69;5035958;28;20462;-79
2023/12/01 04:48:02;;;;;;;57.47;27.27;;;;;;;0.70;98.58;99725.44;5034348;28;20333;-80
2023/12/01 04:50:31;;;;;;;54.97;26.27;;;;;;;0.80;99.78;99747.00;5029437;28;20368;-81
2023/12/01 04:53:00;;;;;;;54.03;27.15;;;;;;;0.82;99.52;99749.47;5038805;28;20049;-79
2023/12/01 04:55:31;;;;;;;58.78;26.65;;;;;;;0.78;100.00;99756.59;5038604;28;20046;-80
2023/12/01 04:57:58;;;;;;;51.90;26.00;;;;;;;0.86;100.00;99753.44;5038161;28;20079;-78
2023/12/01 05:00:26;;;;;;;52.70;26.58;;;;;;;0.96;100.00;99754.38;5036244;28;20396;-79
2023/12/01 05:02:54;;;;;;;51.40;25.20;;;;;;;0.94;100.00;99751.13;5039809;28;20052;-78
2023/12/01 05:05:22;;;;;;;52.15;25.52;;;;;;;0.89;100.00;99761.75;5027038;28;20068;-78
2023/12/01 05:07:51;;;;;;;52.00;25.70;;;;;;;0.90;100.00;99753.09;5033394;28;20091;-78
2023/12/01 05:10:19;;;;;;;50.30;25.98;;;;;;;0.79;100.00;99760.00;5024639;28;20500;-78
2023/12/01 05:12:50;;;;;;;56.45;26.85;;;;;;;0.71;100.00;99759.72;5036704;28;20068;-79
2023/12/01 05:15:18;;;;;;;61.00;27.70;;;;;;;0.70;100.00;99750.38;5032545;28;20050;-78
2023/12/01 05:17:47;;;;;;;52.13;25.92;;;;;;;0.61;100.00;99749.28;5037900;28;20085;-79
2023/12/01 05:20:17;;;;;;;53.00;25.27;;;;;;;0.59;100.00;99758.88;5032904;28;20072;-78
2023/12/01 05:22:46;;;;;;;49.35;24.48;;;;;;;0.50;100.00;99754.41;5032146;28;20046;-78
2023/12/01 05:25:14;;;;;;;49.15;24.85;;;;;;;0.61;100.00;99770.72;5031815;28;20508;-79
2023/12/01 05:27:43;;;;;;;60.75;27.25;;;;;;;0.54;100.00;99760.97;5038689;28;20132;-78
2023/12/01 05:30:13;;;;;;;50.78;25.52;;;;;;;0.52;100.00;99768.00;5032109;28;20053;-77
2023/12/01 05:32:40;;;;;;;57.38;27.33;;;;;;;0.48;100.00;99771.72;5040818;28;20059;-79
2023/12/01 05:35:10;;;;;;;57.28;27.30;;;;;;;0.43;100.00;99768.69;5032789;28;20109;-78
2023/12/01 05:37:38;;;;;;;52.83;25.73;;;;;;;0.44;100.00;99773.72;5035587;28;20574;-79
2023/12/01 05:40:08;;;;;;;52.08;24.95;;;;;;;0.40;100.00;99780.03;5041642;28;20533;-78
2023/12/01 05:42:35;;;;;;;57.92;25.55;;;;;;;0.50;100.00;99780.16;5031843;28;20045;-79
2023/12/01 05:45:02;;;;;;;50.35;25.58;;;;;;;0.63;100.00;99775.75;5031732;28;20136;-78
2023/12/01 05:47:30;;;;;;;52.65;26.70;;;;;;;0.58;100.00;99773.50;5033882;28;20105;-79
2023/12/01 05:49:57;;;;;;;52.28;25.55;;;;;;;0.69;100.00;99783.03;5033164;28;20131;-78
2023/12/01 05:52:23;;;;;;;51.72;24.77;;;;;;;0.51;100.00;99779.22;5031933;28;20064;-79
2023/12/01 05:54:52;;;;;;;52.33;25.35;;;;;;;0.40;100.00;99785.19;5031758;28;20113;-78
2023/12/01 05:57:19;;;;;;;51.88;25.67;;;;;;;0.49;100.00;99784.47;5019839;28;20187;-78
2023/12/01 05:59:46;;;;;;;53.47;26.65;;;;;;;0.51;100.00;99786.94;5035605;28;20128;-80
2023/12/01 06:02:12;;;;;;;52.83;25.67;;;;;;;0.44;100.00;99798.66;5031318;28;20180;-79
2023/12/01 06:04:40;;;;;;;54.35;26.83;;;;;;;0.55;100.00;99802.06;5032619;28;20049;-79
2023/12/01 06:07:08;;;;;;;55.42;26.23;;;;;;;0.53;100.00;99805.66;5031829;28;20497;-79
2023/12/01 06:09:35;;;;;;;53.72;24.92;;;;;;;0.49;100.00;99809.41;5027552;28;20413;-79
2023/12/01 06:12:02;;;;;;;50.83;24.48;;;;;;;0.46;100.00;99801.94;5029964;28;20053;-80
2023/12/01 06:14:29;;;;;;;52.30;25.35;;;;;;;0.50;100.00;99805.91;5032053;28;20128;-79
2023/12/01 06:16:55;;;;;;;49.13;25.50;;;;;;;0.36;100.00;99814.63;5036257;28;20133;-79
2023/12/01 06:19:24;;;;;;;58.08;27.48;;;;;;;0.42;100.00;99810.81;5035945;28;20049;-79
2023/12/01 06:21:53;;;;;;;53.42;26.88;;;;;;;0.57;100.00;99820.78;5037474;28;20050;-79
2023/12/01 06:24:21;;;;;;;51.50;26.08;;;;;;;0.64;100.00;99819.41;5039048;28;20061;-79
2023/12/01 06:26:48;;;;;;;51.20;25.95;;;;;;;0.57;100.00;99817.38;5042788;28;20083;-79
2023/12/01 06:29:15;;;;;;;50.50;24.10;;;;;;;0.60;100.00;99814.59;5033182;28;20054;-79
2023/12/01 06:31:41;;;;;;;46.88;24.02;;;;;;;0.60;100.00;99814.59;5033566;28;20072;-79
2023/12/01 06:34:08;;;;;;;49.95;23.95;;;;;;;0.62;99.83;99810.16;5033725;28;20587;-79
2023/12/01 06:36:34;;;;;;;48.00;23.05;;;;;;;0.66;99.33;99812.38;5035573;28;20049;-79
2023/12/01 06:39:10;;;;;;;45.65;23.50;;;;;;;0.71;99.08;99816.38;5034352;28;20296;-80
2023/12/01 06:41:37;;;;;;;51.88;24.00;;;;;;;0.70;98.89;99815.56;5032641;28;20050;-79
2023/12/01 06:44:03;;;;;;;47.25;24.80;;;;;;;0.61;98.88;99822.19;5032006;28;20112;-79
2023/12/01 06:46:30;;;;;;;42.25;22.88;;;;;;;0.64;98.47;99810.88;5032644;28;20508;-80
2023/12/01 06:48:57;;;;;;;45.20;22.88;;;;;;;0.69;98.09;99818.25;5030083;28;20069;-80
2023/12/01 06:51:23;;;;;;;41.30;21.05;;;;;;;0.58;97.13;99813.88;5028789;28;20145;-79
2023/12/01 06:53:50;;;;;;;40.22;21.35;;;;;;;0.50;97.18;99824.72;5029870;28;20050;-79
2023/12/01 06:56:18;;;;;;;41.50;20.85;;;;;;;0.50;96.93;99827.31;5023574;28;20275;-79
2023/12/01 06:58:45;;;;;;;38.65;20.80;;;;;;;0.69;96.72;99831.94;5033897;28;20052;-80
2023/12/01 07:01:18;;;;;;;35.90;20.13;;;;;;;0.75;96.17;99826.34;5034446;28;20153;-80
2023/12/01 07:03:45;;;;;;;42.28;20.70;;;;;;;0.79;95.90;99832.09;5039366;28;20108;-80
2023/12/01 07:06:11;;;;;;;34.38;18.95;;;;;;;0.74;95.20;99824.72;5032402;28;20088;-80
2023/12/01 07:08:39;;;;;;;36.83;18.63;;;;;;;0.80;94.80;99838.88;5035261;28;20156;-79
2023/12/01 07:11:07;;;;;;;30.88;17.08;;;;;;;0.67;94.18;99831.22;5035765;28;20052;-78
2023/12/01 07:13:35;;;;;;;34.08;17.42;;;;;;;0.73;94.91;99830.78;5031740;28;20174;-78
2023/12/01 07:16:09;;;;;;;30.80;15.85;;;;;;;0.74;94.19;99835.00;5027442;28;20121;-78
2023/12/01 07:18:40;;;;;;;31.58;16.40;;;;;;;0.70;94.08;99833.59;5031222;28;20057;-81
2023/12/01 07:21:09;;;;;;;33.55;17.45;;;;;;;0.70;94.27;99838.75;5029407;28;20130;-79
2023/12/01 07:23:36;;;;;;;35.47;18.25;;;;;;;0.78;94.66;99839.00;5032022;28;20041;-79
2023/12/01 07:26:03;;;;;;;34.03;18.63;;;;;;;0.54;94.61;99841.59;5036240;28;20112;-80
2023/12/01 07:28:30;;;;;;;37.03;19.20;;;;;;;0.52;94.94;99840.06;5030989;28;20209;-79
2023/12/01 07:31:00;;;;;;;36.67;19.02;;;;;;;0.49;95.50;99846.25;5037217;28;20469;-79
2023/12/01 07:33:26;;;;;;;34.50;17.90;;;;;;;0.56;95.81;99841.50;5038794;28;20041;-79
2023/12/01 07:35:56;;;;;;;41.00;17.10;;;;;;;0.46;95.75;99850.84;5037505;28;20057;-80
2023/12/01 07:38:23;;;;;;;35.08;17.67;;;;;;;0.66;95.56;99843.28;5039832;28;20072;-79
2023/12/01 07:40:53;;;;;;;31.27;17.65;;;;;;;0.53;96.26;99842.53;5035376;28;20099;-82
2023/12/01 07:43:21;;;;;;;30.63;16.40;;;;;;;0.60;96.20;99854.03;5038541;28;20041;-80
2023/12/01 07:45:47;;;;;;;26.90;14.77;;;;;;;0.55;95.91;99858.69;5037266;28;20053;-79
2023/12/01 07:48:16;;;;;;;29.40;15.85;;;;;;;0.56;95.92;99849.22;5037246;28;20420;-80
2023/12/01 07:50:44;;;;;;;26.88;14.38;;;;;;;0.41;95.77;99858.06;5038692;28;20513;-80
2023/12/01 07:53:12;;;;;;;26.67;13.90;;;;;;;0.59;95.53;99847.25;5035788;28;20049;-79
2023/12/01 07:55:42;;;;;;;24.48;13.48;;;;;;;0.42;95.38;99850.22;5036913;28;20563;-79
2023/12/01 07:58:09;;;;;;;22.55;12.30;;;;;;;0.51;95.62;99869.31;5037835;28;20083;-80
2023/12/01 08:00:40;;;;;;;23.65;12.35;;;;;;;0.84;96.09;99861.72;5040970;28;20076;-80
2023/12/01 08:03:08;;;;;;;24.15;12.88;;;;;;;0.52;95.00;99861.47;5038844;28;20049;-81
2023/12/01 08:05:39;;;;;;;20.95;12.93;;;;;;;0.54;95.32;99858.78;5041191;28;20072;-81
2023/12/01 08:08:06;;;;;;;22.42;12.02;;;;;;;0.49;95.10;99869.44;5041170;28;20054;-82
2023/12/01 08:10:33;;;;;;;22.50;12.57;;;;;;;0.48;95.00;99869.53;5044792;28;20053;-80
2023/12/01 08:13:00;;;;;;;25.23;13.35;;;;;;;0.44;95.27;99876.69;5037665;28;20060;-81
2023/12/01 08:15:27;;;;;;;25.38;12.10;;;;;;;0.47;95.30;99880.78;5035732;28;20136;-81
2023/12/01 08:17:53;;;;;;;20.65;11.57;;;;;;;0.38;95.29;99884.84;5030656;28;20077;-80
2023/12/01 08:20:20;;;;;;;22.58;11.73;;;;;;;0.30;95.19;99887.13;5040748;28;20251;-80
2023/12/01 08:22:48;;;;;;;24.35;12.43;;;;;;;0.31;95.34;99886.19;5042920;28;20123;-81
2023/12/01 08:25:15;;;;;;;23.35;12.70;;;;;;;0.47;95.35;99891.91;5048583;28;20109;-81
2023/12/01 08:27:43;;;;;;;28.05;13.10;;;;;;;0.43;95.71;99889.66;5025158;28;20116;-80
2023/12/01 08:30:10;;;;;;;21.83;13.15;;;;;;;0.50;95.73;99895.97;5048113;28;20073;-80
2023/12/01 08:32:38;;;;;;;25.63;14.23;;;;;;;0.44;95.91;99888.72;5049516;28;20045;-80
2023/12/01 08:35:05;;;;;;;24.50;13.73;;;;;;;0.55;95.82;99889.56;5044217;28;20112;-80
2023/12/01 08:37:32;;;;;;;23.70;12.70;;;;;;;0.40;95.18;99887.31;5045449;28;20418;-80
2023/12/01 08:40:00;;;;;;;22.20;12.40;;;;;;;0.28;95.15;99882.09;5041960;28;20631;-80
2023/12/01 08:42:27;;;;;;;18.45;11.95;;;;;;;0.37;94.81;99887.53;5041297;28;20250;-80
2023/12/01 08:44:54;;;;;;;21.67;11.95;;;;;;;0.52;94.61;99894.13;5026071;28;20073;-80
2023/12/01 08:47:21;;;;;;;23.60;12.88;;;;;;;0.34;94.67;99883.41;5044184;28;20072;-80
2023/12/01 08:49:49;;;;;;;24.08;13.38;;;;;;;0.49;94.97;99891.78;5043666;28;20069;-80
2023/12/01 08:52:16;;;;;;;20.05;11.48;;;;;;;0.45;94.49;99896.34;5043382;28;20059;-80
2023/12/01 08:54:43;;;;;;;22.38;11.65;;;;;;;0.55;94.56;99897.31;5042767;28;20050;-80
2023/12/01 08:57:11;;;;;;;19.08;11.07;;;;;;;0.47;94.25;99893.66;5043593;28;20068;-80
2023/12/01 08:59:38;;;;;;;20.73;11.90;;;;;;;0.51;94.31;99887.34;5035885;28;20100;-80
2023/12/01 09:02:05;;;;;;;19.38;10.98;;;;;;;0.50;94.57;99896.81;5031148;28;20046;-80
2023/12/01 09:04:32;;;;;;;21.67;12.13;;;;;;;0.58;94.43;99899.66;5043105;28;20064;-81
2023/12/01 09:06:58;;;;;;;19.85;11.82;;;;;;;0.61;94.33;99901.19;5019264;28;20058;-80
2023/12/01 09:09:25;;;;;;;20.85;11.88;;;;;;;0.51;94.30;99902.78;5030392;28;20054;-79
2023/12/01 09:11:52;;;;;;;23.27;12.55;;;;;;;0.66;93.48;99894.78;5038809;28;20084;-79
2023/12/01 09:14:20;;;;;;;22.17;12.63;;;;;;;0.75;93.14;99901.03;5034638;28;20077;-81
2023/12/01 09:16:46;;;;;;;21.75;11.32;;;;;;;0.73;92.98;99902.88;5033839;28;20522;-80
2023/12/01 09:19:13;;;;;;;23.40;11.95;;;;;;;0.79;92.34;99897.28;5018550;28;20136;-79
2023/12/01 09:21:40;;;;;;;21.65;12.65;;;;;;;0.65;92.45;99907.75;5027206;28;20041;-80
2023/12/01 09:24:10;;;;;;;20.77;13.25;;;;;;;0.76;92.25;99904.41;5020273;28;20065;-80
2023/12/01 09:26:36;;;;;;;20.98;12.98;;;;;;;0.79;91.80;99910.16;5023014;28;20076;-80
2023/12/01 09:29:03;;;;;;;21.90;13.70;;;;;;;0.71;91.98;99907.31;5040002;28;20072;-81
2023/12/01 09:31:31;;;;;;;20.25;12.40;;;;;;;0.71;91.42;99912.47;5040396;28;20053;-80
2023/12/01 09:34:00;;;;;;;19.08;12.00;;;;;;;0.73;91.50;99913.19;5031637;28;20069;-83
2023/12/01 09:36:27;;;;;;;18.75;11.80;;;;;;;0.75;91.75;99911.31;5036165;28;20111;-81
2023/12/01 09:38:54;;;;;;;16.40;9.90;;;;;;;0.75;90.73;99907.94;5038362;28;20089;-80
2023/12/01 09:41:21;;;;;;;17.70;10.50;;;;;;;0.68;90.76;99904.16;5030612;28;20080;-80
2023/12/01 09:43:48;;;;;;;20.88;11.00;;;;;;;0.78;90.62;99910.28;5042214;28;20045;-80
2023/12/01 09:46:15;;;;;;;18.02;10.45;;;;;;;0.80;90.86;99916.97;5039491;28;20109;-80
2023/12/01 09:48:47;;;;;;;16.77;11.57;;;;;;;0.58;90.42;99912.53;5023715;28;20073;-80
2023/12/01 09:51:14;;;;;;;20.83;11.18;;;;;;;0.58;90.13;99919.44;5030672;28;20054;-81
2023/12/01 09:53:41;;;;;;;16.48;10.55;;;;;;;0.64;90.40;99924.16;5042904;28;20105;-80
2023/12/01 09:56:10;;;;;;;15.88;9.80;;;;;;;0.61;90.04;99932.91;5018989;28;20061;-80
2023/12/01 09:58:37;;;;;;;18.15;10.18;;;;;;;0.59;90.05;99928.78;5019189;28;20049;-80
2023/12/01 10:01:04;;;;;;;18.50;10.00;;;;;;;0.63;90.16;99925.91;5030846;28;20424;-81
2023/12/01 10:03:30;;;;;;;20.08;11.48;;;;;;;0.70;89.78;99921.13;5037477;28;20081;-79
2023/12/01 10:05:59;;;;;;;17.73;10.73;;;;;;;0.78;90.10;99930.88;5037365;28;20113;-81
2023/12/01 10:08:26;;;;;;;16.98;10.48;;;;;;;0.66;90.07;99924.84;5033605;28;20475;-80
2023/12/01 10:10:53;;;;;;;20.08;11.65;;;;;;;0.86;90.38;99931.97;5043341;28;20042;-79
2023/12/01 10:13:20;;;;;;;21.90;12.70;;;;;;;0.54;90.05;99920.59;5034110;28;20056;-79
2023/12/01 10:15:48;;;;;;;23.33;12.88;;;;;;;0.83;90.02;99921.91;5035359;28;20045;-79
2023/12/01 10:18:17;;;;;;;21.58;12.63;;;;;;;0.74;90.10;99926.88;5032581;28;20069;-78
2023/12/01 10:20:57;;;;;;;21.02;12.07;;;;;;;0.60;90.33;99926.13;5037821;28;20049;-78
2023/12/01 10:23:27;;;;;;;28.80;15.02;;;;;;;0.92;90.36;99923.00;5037480;28;20156;-78
2023/12/01 10:25:54;;;;;;;22.77;12.63;;;;;;;0.78;90.79;99931.72;5034679;28;20420;-78
2023/12/01 10:28:21;;;;;;;22.20;11.63;;;;;;;0.51;91.34;99933.66;5035545;28;20132;-78
2023/12/01 10:30:54;;;;;;;20.30;12.18;;;;;;;0.60;91.70;99925.28;5037439;28;20084;-78
2023/12/01 10:33:21;;;;;;;19.38;12.50;;;;;;;0.70;91.45;99931.44;5035002;28;20088;-78
2023/12/01 10:36:10;;;;;;;19.23;11.45;;;;;;;0.64;91.33;99931.88;5038401;28;20045;-78
2023/12/01 10:38:38;;;;;;;23.20;12.38;;;;;;;0.60;91.86;99933.03;5031123;28;20121;-79
2023/12/01 10:41:08;;;;;;;19.65;11.55;;;;;;;0.49;92.23;99943.25;5041458;28;20057;-79
2023/12/01 10:43:35;;;;;;;23.02;12.30;;;;;;;0.61;92.04;99944.97;5039802;28;20048;-78
2023/12/01 10:46:05;;;;;;;25.02;12.73;;;;;;;0.60;92.18;99926.13;5045891;28;20060;-78
2023/12/01 10:48:33;;;;;;;21.45;12.07;;;;;;;0.62;92.03;99929.41;5047847;28;20049;-78
2023/12/01 10:51:03;;;;;;;22.58;11.82;;;;;;;0.66;92.44;99940.31;5045364;28;20054;-79
2023/12/01 10:53:30;;;;;;;25.55;13.00;;;;;;;0.49;92.97;99948.41;5041357;28;20052;-78
2023/12/01 10:56:04;;;;;;;22.65;12.27;;;;;;;0.45;93.32;99947.00;5025924;28;20109;-78
2023/12/01 10:58:34;;;;;;;21.35;11.60;;;;;;;0.51;93.68;99946.53;5026782;28;20484;-78
2023/12/01 11:01:02;;;;;;;19.92;10.10;;;;;;;0.68;92.97;99924.75;5044789;28;20111;-78
2023/12/01 11:03:30;;;;;;;18.08;10.20;;;;;;;0.63;92.01;99922.50;5045545;28;20105;-78
2023/12/01 11:06:03;;;;;;;21.00;10.98;;;;;;;0.63;91.62;99910.44;5030288;28;20049;-78
2023/12/01 11:08:43;;;;;;;19.08;9.70;;;;;;;0.75;91.34;99898.44;5027516;28;20113;-79
2023/12/01 11:11:18;;;;;;;18.35;10.05;;;;;;;0.63;90.32;99899.34;5026846;28;20049;-78
2023/12/01 11:13:59;;;;;;;18.95;9.45;;;;;;;0.56;90.22;99891.22;5021340;28;20053;-80
2023/12/01 11:16:27;;;;;;;16.88;9.75;;;;;;;0.81;89.64;99895.44;5032306;28;20049;-79
2023/12/01 11:18:55;;;;;;;16.38;9.57;;;;;;;0.76;89.44;99887.22;5030371;28;20153;-78
2023/12/01 11:21:22;;;;;;;14.27;8.98;;;;;;;0.57;89.07;99894.63;5019069;28;20050;-78
2023/12/01 11:23:49;;;;;;;15.68;9.40;;;;;;;0.64;88.97;99895.81;5018331;28;20081;-79
2023/12/01 11:26:17;;;;;;;14.05;9.13;;;;;;;0.49;88.83;99892.59;5037207;28;20060;-78
2023/12/01 11:28:46;;;;;;;13.88;9.63;;;;;;;0.77;89.11;99898.34;5037764;28;20099;-78